Time;durP1;ratioP1;P1;durP2;ratioP2;P2;SDS_P1;SDS_P2;PMS_P1;PMS_P2;Temp;Humidity;BMP_temperature;BMP_pressure;BME280_temperature;BME280_humidity;BME280_pressure;Samples;Min_cycle;Max_cycle;Signal;HPM_P1;HPM_P2
2022/09/28 00:01:50;;;;;;;36.00;32.58;;;;;;;;;;5074336;28;20487;-63
2022/09/28 00:04:16;;;;;;;34.42;31.13;;;;;;;;;;5073615;28;20025;-64
2022/09/28 00:06:42;;;;;;;37.50;33.53;;;;;;;;;;5080016;28;20104;-63
2022/09/28 00:09:08;;;;;;;36.30;32.55;;;;;;;;;;5087380;28;20115;-63
2022/09/28 00:11:34;;;;;;;37.78;33.95;;;;;;;;;;5078245;28;20038;-62
2022/09/28 00:14:02;;;;;;;36.05;32.60;;;;;;;;;;5074431;28;20028;-63
2022/09/28 00:16:32;;;;;;;37.33;33.30;;;;;;;;;;5074476;28;20025;-63
2022/09/28 00:18:59;;;;;;;37.72;33.83;;;;;;;;;;5072925;28;20033;-61
2022/09/28 00:21:29;;;;;;;36.95;33.00;;;;;;;;;;5073358;28;20439;-63
2022/09/28 00:24:13;;;;;;;36.60;33.00;;;;;;;;;;5074429;28;20029;-62
2022/09/28 00:26:41;;;;;;;36.85;33.20;;;;;;;;;;5073349;28;20025;-59
2022/09/28 00:29:12;;;;;;;36.75;32.85;;;;;;;;;;5073205;28;20112;-63
2022/09/28 00:31:38;;;;;;;37.88;33.60;;;;;;;;;;5074187;28;20034;-63
2022/09/28 00:34:04;;;;;;;38.10;33.92;;;;;;;;;;5074904;28;20107;-62
2022/09/28 00:36:31;;;;;;;37.20;33.22;;;;;;;;;;5077566;28;20036;-63
2022/09/28 00:38:58;;;;;;;37.15;33.42;;;;;;;;;;5076941;28;20169;-63
2022/09/28 00:41:25;;;;;;;37.03;33.08;;;;;;;;;;5077229;28;20051;-62
2022/09/28 00:43:51;;;;;;;37.28;33.42;;;;;;;;;;5077294;28;20107;-63
2022/09/28 00:46:33;;;;;;;37.30;33.30;;;;;;;;;;5076766;28;20099;-63
2022/09/28 00:49:06;;;;;;;38.20;33.78;;;;;;;;;;5074321;28;20021;-62
2022/09/28 00:51:33;;;;;;;38.42;33.92;;;;;;;;;;5074605;28;20036;-63
2022/09/28 00:54:00;;;;;;;40.70;34.42;;;;;;;;;;5073996;28;20028;-64
2022/09/28 00:56:27;;;;;;;39.40;35.17;;;;;;;;;;5073839;28;20028;-63
2022/09/28 00:58:53;;;;;;;39.10;34.58;;;;;;;;;;5072717;28;20024;-63
2022/09/28 01:01:20;;;;;;;40.78;35.05;;;;;;;;;;5072469;28;20497;-62
2022/09/28 01:03:47;;;;;;;38.72;34.53;;;;;;;;;;5073503;28;20447;-63
2022/09/28 01:06:21;;;;;;;38.85;33.88;;;;;;;;;;5073669;28;20036;-62
2022/09/28 01:08:50;;;;;;;40.38;36.10;;;;;;;;;;5072325;28;20286;-63
2022/09/28 01:11:16;;;;;;;41.55;35.35;;;;;;;;;;5072751;28;20024;-62
2022/09/28 01:13:42;;;;;;;41.30;35.40;;;;;;;;;;5073298;28;20028;-62
2022/09/28 01:16:14;;;;;;;40.97;36.38;;;;;;;;;;5058140;28;20036;-61
2022/09/28 01:18:47;;;;;;;42.05;36.00;;;;;;;;;;5052549;28;20436;-63
2022/09/28 01:21:18;;;;;;;41.78;36.33;;;;;;;;;;5052957;28;20108;-63
2022/09/28 01:23:44;;;;;;;45.50;37.95;;;;;;;;;;5053122;28;20055;-61
2022/09/28 01:26:10;;;;;;;45.97;39.15;;;;;;;;;;5052675;28;20021;-59
2022/09/28 01:28:36;;;;;;;43.97;38.63;;;;;;;;;;5050532;28;20047;-62
2022/09/28 01:31:08;;;;;;;44.63;39.17;;;;;;;;;;5053136;28;20029;-62
2022/09/28 01:33:39;;;;;;;44.17;37.60;;;;;;;;;;5053284;28;20397;-61
2022/09/28 01:36:09;;;;;;;47.35;37.78;;;;;;;;;;5052889;28;20797;-62
2022/09/28 01:38:42;;;;;;;47.38;38.97;;;;;;;;;;5052403;28;20024;-62
2022/09/28 01:41:09;;;;;;;44.83;37.50;;;;;;;;;;5049920;28;20485;-62
2022/09/28 01:43:37;;;;;;;41.63;35.95;;;;;;;;;;5052591;28;20096;-62
2022/09/28 01:46:24;;;;;;;42.42;37.15;;;;;;;;;;5052690;28;20079;-61
2022/09/28 01:48:53;;;;;;;49.60;39.10;;;;;;;;;;5052171;28;20025;-62
2022/09/28 01:51:24;;;;;;;44.80;37.38;;;;;;;;;;5051297;28;20496;-62
2022/09/28 01:53:56;;;;;;;41.80;36.53;;;;;;;;;;5052532;28;20029;-62
2022/09/28 01:56:27;;;;;;;42.80;36.72;;;;;;;;;;5052801;28;20031;-63
2022/09/28 01:59:00;;;;;;;42.30;36.03;;;;;;;;;;5051972;28;20036;-62
2022/09/28 02:01:28;;;;;;;41.78;36.70;;;;;;;;;;5054365;28;20049;-64
2022/09/28 02:04:00;;;;;;;41.78;36.35;;;;;;;;;;5061715;28;20021;-63
2022/09/28 02:06:31;;;;;;;39.88;35.42;;;;;;;;;;5056172;28;20025;-63
2022/09/28 02:09:03;;;;;;;37.92;33.70;;;;;;;;;;5052020;28;20048;-61
2022/09/28 02:11:29;;;;;;;39.25;34.63;;;;;;;;;;5052823;28;20442;-60
2022/09/28 02:13:58;;;;;;;39.10;33.35;;;;;;;;;;5051648;28;20116;-60
2022/09/28 02:16:45;;;;;;;38.75;34.60;;;;;;;;;;5051337;28;20128;-63
2022/09/28 02:19:12;;;;;;;38.70;34.55;;;;;;;;;;5051719;28;20082;-61
2022/09/28 02:21:42;;;;;;;38.88;34.50;;;;;;;;;;5052335;28;20115;-62
2022/09/28 02:24:15;;;;;;;40.50;33.38;;;;;;;;;;5052263;28;20021;-62
2022/09/28 02:26:42;;;;;;;38.45;34.30;;;;;;;;;;5052969;28;20021;-64
2022/09/28 02:29:08;;;;;;;36.40;32.60;;;;;;;;;;5055991;28;20504;-63
2022/09/28 02:31:34;;;;;;;37.55;33.70;;;;;;;;;;5056252;28;20025;-62
2022/09/28 02:34:00;;;;;;;37.25;32.53;;;;;;;;;;5055312;28;20059;-62
2022/09/28 02:36:27;;;;;;;35.63;31.90;;;;;;;;;;5056481;28;20025;-63
2022/09/28 02:38:53;;;;;;;34.90;31.20;;;;;;;;;;5055197;28;20284;-62
2022/09/28 02:41:30;;;;;;;34.85;31.30;;;;;;;;;;5056216;28;20107;-60
2022/09/28 02:44:04;;;;;;;36.63;32.67;;;;;;;;;;5056101;28;20029;-60
2022/09/28 02:46:46;;;;;;;36.95;31.92;;;;;;;;;;5055999;28;20469;-63
2022/09/28 02:49:23;;;;;;;35.03;31.48;;;;;;;;;;5055371;28;20028;-63
2022/09/28 02:52:08;;;;;;;34.85;31.13;;;;;;;;;;5052989;28;20052;-63
2022/09/28 02:54:33;;;;;;;36.85;31.15;;;;;;;;;;5055875;28;20033;-63
2022/09/28 02:57:11;;;;;;;34.05;30.58;;;;;;;;;;5055944;28;20025;-62
2022/09/28 02:59:56;;;;;;;34.08;30.60;;;;;;;;;;5055686;28;20477;-63
2022/09/28 03:02:28;;;;;;;33.92;30.23;;;;;;;;;;5055647;28;20389;-62
2022/09/28 03:04:55;;;;;;;33.42;29.88;;;;;;;;;;5055739;28;20025;-63
2022/09/28 03:07:21;;;;;;;33.50;30.00;;;;;;;;;;5055046;28;20111;-62
2022/09/28 03:09:53;;;;;;;33.25;29.77;;;;;;;;;;5054530;28;20068;-61
2022/09/28 03:12:20;;;;;;;33.80;30.30;;;;;;;;;;5053929;28;20128;-63
2022/09/28 03:14:46;;;;;;;34.03;30.48;;;;;;;;;;5055312;28;20474;-63
2022/09/28 03:17:12;;;;;;;33.90;30.40;;;;;;;;;;5054007;28;20516;-62
2022/09/28 03:19:38;;;;;;;34.30;30.60;;;;;;;;;;5055460;28;20089;-64
2022/09/28 03:22:04;;;;;;;35.05;31.23;;;;;;;;;;5055076;28;20041;-62
2022/09/28 03:24:30;;;;;;;34.20;30.13;;;;;;;;;;5054242;28;20105;-66
2022/09/28 03:26:56;;;;;;;33.95;30.52;;;;;;;;;;5053990;28;20082;-63
2022/09/28 03:29:22;;;;;;;34.97;30.73;;;;;;;;;;5054611;28;20021;-63
2022/09/28 03:31:48;;;;;;;32.72;29.42;;;;;;;;;;5054982;28;20025;-63
2022/09/28 03:34:14;;;;;;;35.15;31.35;;;;;;;;;;5054824;28;20132;-62
2022/09/28 03:36:40;;;;;;;35.67;31.88;;;;;;;;;;5053496;28;20024;-64
2022/09/28 03:39:06;;;;;;;36.58;31.83;;;;;;;;;;5054125;28;20540;-63
2022/09/28 03:41:32;;;;;;;35.75;31.95;;;;;;;;;;5055183;28;20028;-62
2022/09/28 03:43:58;;;;;;;35.90;31.50;;;;;;;;;;5053577;28;20078;-62
2022/09/28 03:46:24;;;;;;;35.45;31.75;;;;;;;;;;5054906;28;20021;-62
2022/09/28 03:48:50;;;;;;;37.05;32.90;;;;;;;;;;5054170;28;20027;-63
2022/09/28 03:51:16;;;;;;;35.50;31.80;;;;;;;;;;5052367;28;20031;-62
2022/09/28 03:53:42;;;;;;;35.83;32.15;;;;;;;;;;5063963;28;20070;-63
2022/09/28 03:56:11;;;;;;;34.88;31.17;;;;;;;;;;5061645;28;20116;-64
2022/09/28 03:58:37;;;;;;;37.78;33.75;;;;;;;;;;5073976;28;20020;-60
2022/09/28 04:01:07;;;;;;;35.88;32.08;;;;;;;;;;5061453;28;20029;-61
2022/09/28 04:03:33;;;;;;;36.47;32.05;;;;;;;;;;5054317;28;20021;-63
2022/09/28 04:05:59;;;;;;;37.15;33.22;;;;;;;;;;5054679;28;20025;-63
2022/09/28 04:08:25;;;;;;;37.05;32.05;;;;;;;;;;5065277;28;20477;-64
2022/09/28 04:10:52;;;;;;;36.15;32.35;;;;;;;;;;5082966;28;20024;-62
2022/09/28 04:13:18;;;;;;;35.90;32.22;;;;;;;;;;5073347;28;20044;-62
2022/09/28 04:15:51;;;;;;;37.08;33.05;;;;;;;;;;5074398;28;20081;-63
2022/09/28 04:18:17;;;;;;;37.28;33.28;;;;;;;;;;5073909;28;20421;-62
2022/09/28 04:20:45;;;;;;;35.85;31.95;;;;;;;;;;5074041;28;20115;-62
2022/09/28 04:23:11;;;;;;;37.22;33.17;;;;;;;;;;5074035;28;20031;-63
2022/09/28 04:25:38;;;;;;;37.25;33.33;;;;;;;;;;5070656;28;20587;-61
2022/09/28 04:30:49;;;;;;;37.53;33.50;;;;;;;;;;5054433;28;20120;-63
2022/09/28 04:33:15;;;;;;;37.15;33.25;;;;;;;;;;5054030;28;20048;-62
2022/09/28 04:35:41;;;;;;;37.63;33.60;;;;;;;;;;5053861;28;20449;-62
2022/09/28 04:38:07;;;;;;;37.95;33.92;;;;;;;;;;5053005;28;20049;-61
2022/09/28 04:40:33;;;;;;;36.65;32.45;;;;;;;;;;5053764;28;20025;-63
2022/09/28 04:42:59;;;;;;;36.88;32.95;;;;;;;;;;5053867;28;20476;-61
2022/09/28 04:45:25;;;;;;;37.20;31.90;;;;;;;;;;5052449;28;20032;-62
2022/09/28 04:47:51;;;;;;;37.28;33.28;;;;;;;;;;5053228;28;20477;-62
2022/09/28 04:50:17;;;;;;;36.53;32.13;;;;;;;;;;5052823;28;20029;-58
2022/09/28 04:52:43;;;;;;;36.85;32.90;;;;;;;;;;5051345;28;20049;-62
2022/09/28 04:55:12;;;;;;;35.40;31.70;;;;;;;;;;5053688;28;20097;-63
2022/09/28 04:57:38;;;;;;;;;;;;;;;;;;5053186;28;20397;-60
2022/09/28 05:00:04;;;;;;;37.75;33.47;;;;;;;;;;5051859;28;19904;-62
2022/09/28 05:02:31;;;;;;;37.47;32.83;;;;;;;;;;5053498;28;20108;-62
2022/09/28 05:04:57;;;;;;;35.60;31.55;;;;;;;;;;5053149;28;20020;-61
2022/09/28 05:07:24;;;;;;;40.95;33.97;;;;;;;;;;5052267;28;20028;-60
2022/09/28 05:09:50;;;;;;;39.08;34.72;;;;;;;;;;5052173;28;20049;-60
2022/09/28 05:12:16;;;;;;;40.50;34.47;;;;;;;;;;5074588;22;20028;-64
2022/09/28 05:14:42;;;;;;;39.28;34.28;;;;;;;;;;5050378;28;20071;-65
2022/09/28 05:17:08;;;;;;;41.70;36.95;;;;;;;;;;5050367;28;20033;-64
2022/09/28 05:19:34;;;;;;;42.95;36.63;;;;;;;;;;5051357;28;20024;-66
2022/09/28 05:22:03;;;;;;;38.97;34.35;;;;;;;;;;5051574;28;20166;-65
2022/09/28 05:24:29;;;;;;;41.33;36.72;;;;;;;;;;5030209;28;20032;-66
2022/09/28 05:26:55;;;;;;;43.83;35.88;;;;;;;;;;5029186;28;20026;-67
2022/09/28 05:29:21;;;;;;;39.13;34.92;;;;;;;;;;5029740;28;20496;-66
2022/09/28 05:31:47;;;;;;;41.72;35.30;;;;;;;;;;5031534;28;20021;-65
2022/09/28 05:34:13;;;;;;;38.67;33.78;;;;;;;;;;5031767;28;20113;-66
2022/09/28 05:36:41;;;;;;;38.80;34.60;;;;;;;;;;5030402;28;20079;-66
2022/09/28 05:39:08;;;;;;;41.72;36.40;;;;;;;;;;5030823;28;20021;-66
2022/09/28 05:41:34;;;;;;;42.90;37.47;;;;;;;;;;5030425;28;20481;-63
2022/09/28 05:44:00;;;;;;;38.58;34.40;;;;;;;;;;5031275;28;20029;-66
2022/09/28 05:46:26;;;;;;;38.67;34.30;;;;;;;;;;5031682;28;20033;-69
2022/09/28 05:48:53;;;;;;;39.03;34.75;;;;;;;;;;5029357;28;20143;-66
2022/09/28 05:51:19;;;;;;;38.80;34.60;;;;;;;;;;5030813;28;20112;-65
2022/09/28 05:53:45;;;;;;;37.83;33.60;;;;;;;;;;5031047;28;20120;-65
2022/09/28 05:56:11;;;;;;;37.60;33.60;;;;;;;;;;5013776;28;20112;-66
2022/09/28 05:58:37;;;;;;;37.92;33.80;;;;;;;;;;5012882;28;20026;-66
2022/09/28 06:01:03;;;;;;;38.13;33.05;;;;;;;;;;5030486;28;20443;-62
2022/09/28 06:03:29;;;;;;;36.78;32.05;;;;;;;;;;5049832;28;20128;-66
2022/09/28 06:05:55;;;;;;;39.10;34.20;;;;;;;;;;5035496;28;20131;-66
2022/09/28 06:08:21;;;;;;;43.40;35.45;;;;;;;;;;5034533;28;20037;-65
2022/09/28 06:10:47;;;;;;;34.55;30.85;;;;;;;;;;5034649;28;20040;-66
2022/09/28 06:13:13;;;;;;;36.63;32.20;;;;;;;;;;5050520;28;20033;-65
2022/09/28 06:15:41;;;;;;;36.78;32.40;;;;;;;;;;5035510;28;20143;-65
2022/09/28 06:18:12;;;;;;;38.45;32.08;;;;;;;;;;5034256;28;20033;-64
2022/09/28 06:20:42;;;;;;;38.75;31.80;;;;;;;;;;5050678;28;20527;-60
2022/09/28 06:23:09;;;;;;;36.53;32.55;;;;;;;;;;5034989;28;20025;-66
2022/09/28 06:25:35;;;;;;;41.72;34.58;;;;;;;;;;5035076;28;20025;-64
2022/09/28 06:28:02;;;;;;;37.65;33.22;;;;;;;;;;5049974;28;20109;-64
2022/09/28 06:30:28;;;;;;;38.97;32.55;;;;;;;;;;5050508;28;20026;-62
2022/09/28 06:32:55;;;;;;;40.75;33.38;;;;;;;;;;5034837;28;20029;-65
2022/09/28 06:35:22;;;;;;;38.00;31.58;;;;;;;;;;5034710;28;20144;-63
2022/09/28 06:37:48;;;;;;;34.50;30.73;;;;;;;;;;5034133;28;20033;-63
2022/09/28 06:40:14;;;;;;;36.80;32.75;;;;;;;;;;5034885;28;20033;-64
2022/09/28 06:42:40;;;;;;;39.53;32.65;;;;;;;;;;5034453;28;20093;-64
2022/09/28 06:45:06;;;;;;;34.78;30.35;;;;;;;;;;5034735;28;20045;-65
2022/09/28 06:47:32;;;;;;;35.90;31.00;;;;;;;;;;5048912;28;20025;-63
2022/09/28 06:49:59;;;;;;;37.90;30.88;;;;;;;;;;5034871;28;20017;-64
2022/09/28 06:52:25;;;;;;;36.65;31.45;;;;;;;;;;5034652;28;20026;-65
2022/09/28 06:54:51;;;;;;;36.22;31.38;;;;;;;;;;5016997;28;20063;-66
2022/09/28 06:57:18;;;;;;;38.67;30.95;;;;;;;;;;5033907;28;20029;-64
2022/09/28 06:59:44;;;;;;;41.42;31.35;;;;;;;;;;5016913;28;20498;-64
2022/09/28 07:02:13;;;;;;;35.15;30.38;;;;;;;;;;5016670;28;20497;-65
2022/09/28 07:04:41;;;;;;;36.38;31.05;;;;;;;;;;5034244;28;20480;-64
2022/09/28 07:07:07;;;;;;;37.35;31.95;;;;;;;;;;5034143;28;20025;-66
2022/09/28 07:09:33;;;;;;;36.45;31.17;;;;;;;;;;5034022;28;20374;-64
2022/09/28 07:11:59;;;;;;;40.10;30.65;;;;;;;;;;5016201;28;20025;-64
2022/09/28 07:14:26;;;;;;;36.40;31.98;;;;;;;;;;5033455;28;20111;-64
2022/09/28 07:16:54;;;;;;;40.55;34.80;;;;;;;;;;5034393;28;20100;-64
2022/09/28 07:19:20;;;;;;;40.60;32.17;;;;;;;;;;5033689;28;20029;-64
2022/09/28 07:21:46;;;;;;;38.75;32.42;;;;;;;;;;5034161;28;20087;-64
2022/09/28 07:24:13;;;;;;;35.90;31.23;;;;;;;;;;5034087;28;20044;-65
2022/09/28 07:26:39;;;;;;;37.33;32.47;;;;;;;;;;5033790;28;20056;-61
2022/09/28 07:29:05;;;;;;;40.83;33.95;;;;;;;;;;5033324;28;20068;-60
2022/09/28 07:31:32;;;;;;;37.10;32.90;;;;;;;;;;5033930;28;20033;-66
2022/09/28 07:33:58;;;;;;;37.65;32.13;;;;;;;;;;5033934;28;20056;-64
2022/09/28 07:36:24;;;;;;;37.05;29.48;;;;;;;;;;5033920;28;20683;-64
2022/09/28 07:38:50;;;;;;;39.05;29.38;;;;;;;;;;5032986;28;20113;-66
2022/09/28 07:41:21;;;;;;;34.65;27.10;;;;;;;;;;5016041;28;20033;-65
2022/09/28 07:43:48;;;;;;;34.15;26.08;;;;;;;;;;5033336;28;20033;-66
2022/09/28 07:46:15;;;;;;;31.95;24.50;;;;;;;;;;5033642;28;20045;-65
2022/09/28 07:48:42;;;;;;;34.65;25.17;;;;;;;;;;5033050;28;20056;-64
2022/09/28 07:51:08;;;;;;;26.48;23.20;;;;;;;;;;5033922;28;20033;-62
2022/09/28 07:53:34;;;;;;;33.55;22.17;;;;;;;;;;5033421;28;20025;-63
2022/09/28 07:56:08;;;;;;;30.48;23.88;;;;;;;;;;5015731;28;20118;-64
2022/09/28 07:58:37;;;;;;;27.67;21.75;;;;;;;;;;5032708;28;20163;-62
2022/09/28 08:01:09;;;;;;;31.00;23.83;;;;;;;;;;5015322;28;20026;-63
2022/09/28 08:03:35;;;;;;;27.77;22.65;;;;;;;;;;5030762;28;20496;-62
2022/09/28 08:06:02;;;;;;;29.38;21.73;;;;;;;;;;5033278;28;20022;-64
2022/09/28 08:08:28;;;;;;;29.17;21.90;;;;;;;;;;5014993;28;20056;-64
2022/09/28 08:10:55;;;;;;;28.05;21.30;;;;;;;;;;5033191;28;20029;-65
2022/09/28 08:13:21;;;;;;;26.52;20.75;;;;;;;;;;5033258;28;20056;-61
2022/09/28 08:15:50;;;;;;;29.65;21.27;;;;;;;;;;5033279;28;20082;-67
2022/09/28 08:18:17;;;;;;;26.90;20.98;;;;;;;;;;5033966;28;20031;-67
2022/09/28 08:23:27;;;;;;;30.38;20.55;;;;;;;;;;5029347;28;20025;-66
2022/09/28 08:25:53;;;;;;;27.25;21.10;;;;;;;;;;5023471;28;20022;-67
2022/09/28 08:28:21;;;;;;;27.50;20.00;;;;;;;;;;5015715;28;20038;-67
2022/09/28 08:30:47;;;;;;;27.25;18.42;;;;;;;;;;5030689;28;20091;-68
2022/09/28 08:33:14;;;;;;;25.92;20.00;;;;;;;;;;5033050;28;20342;-65
2022/09/28 08:35:40;;;;;;;24.80;18.77;;;;;;;;;;5048623;28;20026;-67
2022/09/28 08:38:07;;;;;;;24.55;18.77;;;;;;;;;;5047773;28;20029;-67
2022/09/28 08:40:54;;;;;;;23.02;17.52;;;;;;;;;;5048404;28;20025;-68
2022/09/28 08:43:27;;;;;;;23.92;17.67;;;;;;;;;;5005367;28;20216;-68
2022/09/28 08:45:53;;;;;;;23.50;17.60;;;;;;;;;;5024516;28;20022;-67
2022/09/28 08:48:43;;;;;;;22.52;17.02;;;;;;;;;;5042358;28;20024;-67
2022/09/28 08:51:14;;;;;;;25.15;18.80;;;;;;;;;;5032479;28;20397;-68
2022/09/28 08:54:09;;;;;;;24.10;17.40;;;;;;;;;;5033002;28;20021;-68
2022/09/28 08:56:38;;;;;;;25.60;18.08;;;;;;;;;;4998681;28;20041;-68
2022/09/28 08:59:09;;;;;;;25.30;17.67;;;;;;;;;;5047202;28;20025;-67
2022/09/28 09:01:38;;;;;;;22.77;17.48;;;;;;;;;;5032452;28;20049;-66
2022/09/28 09:04:04;;;;;;;30.90;20.90;;;;;;;;;;5032942;28;20030;-66
2022/09/28 09:06:50;;;;;;;25.90;20.08;;;;;;;;;;5047947;28;20025;-65
2022/09/28 09:09:16;;;;;;;31.52;22.92;;;;;;;;;;5032202;28;20361;-63
2022/09/28 09:12:02;;;;;;;21.92;16.08;;;;;;;;;;5032259;28;20501;-65
2022/09/28 09:14:53;;;;;;;25.23;17.25;;;;;;;;;;5015119;28;20485;-66
2022/09/28 09:17:40;;;;;;;25.00;18.38;;;;;;;;;;5013745;28;20123;-65
2022/09/28 09:20:15;;;;;;;24.73;18.20;;;;;;;;;;5032212;28;20026;-66
2022/09/28 09:23:01;;;;;;;26.20;17.48;;;;;;;;;;5032092;28;20033;-66
2022/09/28 09:25:27;;;;;;;24.08;16.92;;;;;;;;;;5032040;28;20028;-66
2022/09/28 09:28:08;;;;;;;25.33;17.52;;;;;;;;;;5013532;28;20366;-66
2022/09/28 09:30:42;;;;;;;24.83;16.73;;;;;;;;;;5031957;28;20033;-66
2022/09/28 09:33:35;;;;;;;25.58;17.95;;;;;;;;;;5031780;28;20022;-67
2022/09/28 09:36:07;;;;;;;23.67;18.27;;;;;;;;;;5013962;28;20080;-67
2022/09/28 09:38:45;;;;;;;24.52;16.75;;;;;;;;;;5013200;28;20029;-66
2022/09/28 09:41:20;;;;;;;22.83;17.05;;;;;;;;;;5031465;28;20033;-67
2022/09/28 09:43:46;;;;;;;26.05;18.67;;;;;;;;;;5031308;28;20025;-67
2022/09/28 09:46:15;;;;;;;24.17;17.20;;;;;;;;;;5013731;28;20104;-67
2022/09/28 09:48:41;;;;;;;21.60;16.10;;;;;;;;;;5030025;28;20025;-66
2022/09/28 09:51:17;;;;;;;24.55;17.13;;;;;;;;;;5030824;28;20500;-64
2022/09/28 09:53:58;;;;;;;23.27;16.75;;;;;;;;;;5025218;28;20035;-62
2022/09/28 09:56:33;;;;;;;22.58;15.50;;;;;;;;;;5031641;28;20036;-65
2022/09/28 09:59:03;;;;;;;24.20;16.58;;;;;;;;;;5030585;28;20028;-66
2022/09/28 10:01:34;;;;;;;22.13;16.65;;;;;;;;;;5031144;28;20398;-66
2022/09/28 10:04:00;;;;;;;22.48;16.30;;;;;;;;;;5031620;28;20049;-65
2022/09/28 10:06:29;;;;;;;23.00;16.98;;;;;;;;;;5031256;28;20112;-65
2022/09/28 10:09:01;;;;;;;24.10;16.20;;;;;;;;;;5031060;28;20610;-66
2022/09/28 10:11:30;;;;;;;22.05;16.25;;;;;;;;;;5031336;28;20041;-67
2022/09/28 10:13:57;;;;;;;22.45;16.05;;;;;;;;;;5046439;28;20518;-66
2022/09/28 10:16:23;;;;;;;21.50;16.35;;;;;;;;;;5031452;28;20033;-66
2022/09/28 10:18:49;;;;;;;20.02;15.10;;;;;;;;;;5034745;28;20033;-66
2022/09/28 10:21:17;;;;;;;21.50;15.25;;;;;;;;;;5019523;28;20062;-65
2022/09/28 10:23:44;;;;;;;22.08;15.57;;;;;;;;;;5024899;28;20033;-67
2022/09/28 10:26:13;;;;;;;21.55;15.25;;;;;;;;;;5047387;28;20033;-66
2022/09/28 10:28:39;;;;;;;21.95;14.43;;;;;;;;;;5030443;28;20394;-66
2022/09/28 10:31:24;;;;;;;20.77;14.25;;;;;;;;;;5029459;28;20029;-66
2022/09/28 10:33:52;;;;;;;19.98;14.18;;;;;;;;;;5029541;28;20394;-65
2022/09/28 10:36:18;;;;;;;24.27;16.73;;;;;;;;;;5030545;28;20048;-66
2022/09/28 10:38:47;;;;;;;20.80;14.85;;;;;;;;;;5029961;28;20096;-66
2022/09/28 10:41:15;;;;;;;;;;;;;;;;;;5020016;28;20025;-66
2022/09/28 10:43:50;;;;;;;20.15;14.43;;;;;;;;;;5013322;28;20421;-66
2022/09/28 10:46:23;;;;;;;19.17;14.50;;;;;;;;;;5030800;28;20386;-67
2022/09/28 10:48:55;;;;;;;19.85;13.77;;;;;;;;;;5029147;28;20026;-66
2022/09/28 10:51:39;;;;;;;18.77;14.10;;;;;;;;;;4997140;28;20383;-66
2022/09/28 10:54:05;;;;;;;18.63;13.68;;;;;;;;;;5014846;28;20057;-66
2022/09/28 10:56:39;;;;;;;19.10;13.02;;;;;;;;;;5014809;28;20034;-66
2022/09/28 10:59:24;;;;;;;19.63;12.55;;;;;;;;;;5014335;28;20037;-66
2022/09/28 11:02:16;;;;;;;18.30;13.20;;;;;;;;;;5014661;28;20499;-66
2022/09/28 11:04:49;;;;;;;21.15;13.55;;;;;;;;;;5002605;28;20026;-66
2022/09/28 11:07:17;;;;;;;19.30;13.50;;;;;;;;;;5033288;28;20036;-66
2022/09/28 11:09:46;;;;;;;23.00;14.53;;;;;;;;;;5033343;28;20105;-67
2022/09/28 11:12:11;;;;;;;;;;;;;;;;;;5042149;28;20021;-66
2022/09/28 11:14:39;;;;;;;19.67;13.20;;;;;;;;;;5007751;28;19909;-66
2022/09/28 11:17:17;;;;;;;19.75;14.07;;;;;;;;;;5078328;22;20051;-62
2022/09/28 11:19:44;;;;;;;21.30;14.70;;;;;;;;;;5085802;28;20045;-61
2022/09/28 11:22:20;;;;;;;18.83;14.30;;;;;;;;;;5081314;28;20036;-62
2022/09/28 11:24:47;;;;;;;19.92;14.82;;;;;;;;;;5082256;28;20020;-62
2022/09/28 11:28:09;;;;;;;18.42;13.98;;;;;;;;;;5069556;28;20449;-65
2022/09/28 11:30:25;;;;;;;17.65;13.95;;;;;;;;;;5035013;28;20064;-62
2022/09/28 11:32:53;;;;;;;18.15;14.35;;;;;;;;;;5036526;28;20021;-62
2022/09/28 11:35:21;;;;;;;19.33;14.32;;;;;;;;;;5041885;28;20021;-62
2022/09/28 11:37:50;;;;;;;21.33;14.43;;;;;;;;;;5037519;28;20033;-62
2022/09/28 12:01:30;;;;;;;18.50;14.35;;;;;;;;;;5998300;23;20012;-61
2022/09/28 12:04:08;;;;;;;22.17;13.32;;;;;;;;;;5073432;28;20041;-62
2022/09/28 12:09:16;;;;;;;25.63;15.10;;;;;;;;;;5331319;22;20045;-64
2022/09/28 12:11:43;;;;;;;19.35;14.43;;;;;;;;;;5052664;28;20082;-63
2022/09/28 12:14:15;;;;;;;20.10;13.68;;;;;;;;;;5053565;28;20037;-63
2022/09/28 12:16:45;;;;;;;20.77;12.82;;;;;;;;;;5051431;28;20499;-62
2022/09/28 12:19:18;;;;;;;17.83;12.75;;;;;;;;;;5071348;28;20502;-62
2022/09/28 12:21:52;;;;;;;18.13;12.73;;;;;;;;;;5072976;28;20483;-63
2022/09/28 12:24:24;;;;;;;18.08;13.30;;;;;;;;;;5072226;22;20041;-68
2022/09/28 12:27:11;;;;;;;18.23;12.88;;;;;;;;;;5068197;28;20036;-68
2022/09/28 12:29:37;;;;;;;17.48;12.20;;;;;;;;;;5071498;28;20048;-68
2022/09/28 12:32:10;;;;;;;18.50;13.07;;;;;;;;;;5071597;28;20036;-67
2022/09/28 12:34:36;;;;;;;18.75;12.68;;;;;;;;;;5071571;28;20020;-66
2022/09/28 12:37:02;;;;;;;17.67;12.70;;;;;;;;;;5070776;28;20656;-67
2022/09/28 12:39:40;;;;;;;19.52;12.77;;;;;;;;;;5070402;28;20039;-66
2022/09/28 12:42:40;;;;;;;19.38;13.00;;;;;;;;;;5070126;28;20509;-68
2022/09/28 12:45:05;;;;;;;18.50;12.73;;;;;;;;;;5068212;28;20033;-68
2022/09/28 12:47:31;;;;;;;18.17;13.32;;;;;;;;;;5050594;28;20070;-68
2022/09/28 12:50:03;;;;;;;17.48;12.30;;;;;;;;;;5051614;28;20044;-66
2022/09/28 12:52:36;;;;;;;16.92;12.65;;;;;;;;;;5051485;28;20033;-66
2022/09/28 12:55:14;;;;;;;17.38;12.73;;;;;;;;;;5069647;28;20793;-68
2022/09/28 12:57:43;;;;;;;18.27;13.85;;;;;;;;;;5071518;28;20361;-67
2022/09/28 13:00:09;;;;;;;16.50;13.32;;;;;;;;;;5072275;28;20430;-68
2022/09/28 13:02:35;;;;;;;16.20;13.20;;;;;;;;;;5071602;28;20384;-66
2022/09/28 13:05:10;;;;;;;16.60;13.30;;;;;;;;;;5071938;28;20028;-68
2022/09/28 13:07:49;;;;;;;17.90;14.00;;;;;;;;;;5069909;28;20025;-68
2022/09/28 13:10:35;;;;;;;16.10;13.05;;;;;;;;;;5071665;28;20020;-69
2022/09/28 13:13:21;;;;;;;16.75;13.00;;;;;;;;;;5071911;28;20035;-66
2022/09/28 13:15:55;;;;;;;16.75;13.50;;;;;;;;;;5050514;28;20047;-66
2022/09/28 13:18:40;;;;;;;16.35;13.38;;;;;;;;;;5071744;28;20055;-67
2022/09/28 13:21:14;;;;;;;18.02;13.85;;;;;;;;;;5071263;28;20498;-67
2022/09/28 13:23:45;;;;;;;16.80;13.85;;;;;;;;;;5071332;28;20100;-68
2022/09/28 13:26:23;;;;;;;18.13;13.55;;;;;;;;;;5072451;28;20042;-67
2022/09/28 13:28:53;;;;;;;17.90;13.68;;;;;;;;;;5071402;28;20415;-67
2022/09/28 13:31:21;;;;;;;21.45;16.08;;;;;;;;;;5071637;28;20070;-68
2022/09/28 13:33:49;;;;;;;17.63;13.88;;;;;;;;;;5071534;28;20024;-66
2022/09/28 13:36:27;;;;;;;16.65;13.10;;;;;;;;;;5070764;28;20391;-65
2022/09/28 13:38:58;;;;;;;17.00;13.32;;;;;;;;;;5071202;28;20096;-66
2022/09/28 13:41:39;;;;;;;20.60;13.35;;;;;;;;;;5072313;28;20124;-65
2022/09/28 13:44:11;;;;;;;16.10;12.45;;;;;;;;;;5070498;28;20506;-63
2022/09/28 13:46:40;;;;;;;15.77;12.75;;;;;;;;;;5072984;28;20050;-67
2022/09/28 13:49:06;;;;;;;18.02;12.75;;;;;;;;;;5071032;28;20030;-65
2022/09/28 13:51:43;;;;;;;16.77;13.00;;;;;;;;;;5070691;28;20123;-66
2022/09/28 13:54:20;;;;;;;16.35;12.50;;;;;;;;;;5054358;28;20023;-67
2022/09/28 13:56:53;;;;;;;17.35;13.00;;;;;;;;;;5050500;28;20095;-66
2022/09/28 13:59:26;;;;;;;17.95;13.73;;;;;;;;;;5049793;28;20025;-67
2022/09/28 14:02:11;;;;;;;17.42;12.70;;;;;;;;;;5050521;28;20480;-70
2022/09/28 14:04:56;;;;;;;16.25;12.00;;;;;;;;;;5050459;28;20079;-67
2022/09/28 14:07:34;;;;;;;16.40;12.70;;;;;;;;;;5064505;28;20032;-67
2022/09/28 14:10:16;;;;;;;16.08;12.45;;;;;;;;;;5069532;28;20368;-67
2022/09/28 14:12:44;;;;;;;18.05;13.02;;;;;;;;;;5070436;28;20495;-68
2022/09/28 14:15:28;;;;;;;16.03;12.23;;;;;;;;;;5070165;28;20027;-67
2022/09/28 14:18:09;;;;;;;17.65;12.25;;;;;;;;;;5069975;28;20032;-67
2022/09/28 14:20:36;;;;;;;16.38;11.80;;;;;;;;;;5068338;28;20043;-66
2022/09/28 14:23:14;;;;;;;18.48;14.05;;;;;;;;;;5069382;28;20391;-67
2022/09/28 14:25:59;;;;;;;18.23;12.88;;;;;;;;;;5072862;28;20580;-67
2022/09/28 14:28:40;;;;;;;18.33;12.50;;;;;;;;;;5073586;28;20029;-67
2022/09/28 14:31:09;;;;;;;18.42;12.50;;;;;;;;;;5071197;28;20031;-67
2022/09/28 14:33:38;;;;;;;17.23;12.77;;;;;;;;;;5071917;28;20024;-67
2022/09/28 14:36:03;;;;;;;;;;;;;;;;;;5074077;28;20429;-67
2022/09/28 14:41:35;;;;;;;18.75;14.15;;;;;;;;;;5074180;28;20081;-68
2022/09/28 14:44:01;;;;;;;19.10;12.90;;;;;;;;;;5073655;28;20027;-68
2022/09/28 14:46:32;;;;;;;17.98;14.25;;;;;;;;;;5073214;28;20098;-67
2022/09/28 14:49:00;;;;;;;16.15;13.45;;;;;;;;;;4717377;28;10000574;-67
2022/09/28 14:51:26;;;;;;;16.67;12.70;;;;;;;;;;5066133;28;20387;-68
2022/09/28 14:53:53;;;;;;;18.80;15.73;;;;;;;;;;5070000;28;20103;-67
2022/09/28 14:56:19;;;;;;;15.98;13.10;;;;;;;;;;5070899;28;20021;-68
2022/09/28 14:58:47;;;;;;;16.20;12.95;;;;;;;;;;5077049;28;20106;-65
2022/09/28 15:01:18;;;;;;;15.40;12.43;;;;;;;;;;5073821;28;20025;-65
2022/09/28 15:03:46;;;;;;;15.55;12.40;;;;;;;;;;5073898;28;20028;-66
2022/09/28 15:06:15;;;;;;;16.33;12.50;;;;;;;;;;5074380;28;20041;-66
2022/09/28 15:08:42;;;;;;;17.00;12.15;;;;;;;;;;5076569;28;20021;-66